Time;durP1;ratioP1;P1;durP2;ratioP2;P2;SDS_P1;SDS_P2;PMS_P1;PMS_P2;Temp;Humidity;BMP_temperature;BMP_pressure;BME280_temperature;BME280_humidity;BME280_pressure;Samples;Min_cycle;Max_cycle;Signal;HPM_P1;HPM_P2
2023/07/26 00:01:10;;;;;;;;;;;;;;;20.01;100.00;97208.72;5032926;28;19925;-70
2023/07/26 00:03:36;;;;;;;;;;;;;;;20.05;100.00;97215.06;5032962;28;19926;-70
2023/07/26 00:06:02;;;;;;;;;;;;;;;20.10;100.00;97221.03;5033418;28;19998;-69
2023/07/26 00:08:29;;;;;;;;;;;;;;;20.13;100.00;97225.75;5032869;28;19968;-70
2023/07/26 00:10:55;;;;;;;;;;;;;;;20.17;100.00;97229.38;5032766;28;19965;-68
2023/07/26 00:13:21;;;;;;;;;;;;;;;20.15;100.00;97230.84;5032633;28;19985;-70
2023/07/26 00:15:49;;;;;;;;;;;;;;;20.12;100.00;97232.31;5039663;28;19976;-70
2023/07/26 00:18:15;;;;;;;;;;;;;;;20.16;100.00;97227.00;5044724;28;19925;-70
2023/07/26 00:20:42;;;;;;;;;;;;;;;20.17;100.00;97232.09;5032850;28;19932;-70
2023/07/26 00:23:08;;;;;;;;;;;;;;;20.23;100.00;97233.44;5032421;28;19932;-70
2023/07/26 00:25:34;;;;;;;;;;;;;;;20.12;100.00;97226.88;5032722;28;19998;-70
2023/07/26 00:28:01;;;;;;;;;;;;;;;20.21;100.00;97232.97;5032655;28;19929;-70
2023/07/26 00:30:27;;;;;;;;;;;;;;;20.17;100.00;97237.50;5032654;28;19964;-70
2023/07/26 00:32:55;;;;;;;;;;;;;;;20.11;100.00;97246.22;5032523;28;19932;-70
2023/07/26 00:35:22;;;;;;;;;;;;;;;20.05;100.00;97247.56;5032504;28;19972;-69
2023/07/26 00:37:48;;;;;;;;;;;;;;;20.02;100.00;97248.25;5032665;28;20005;-69
2023/07/26 00:40:14;;;;;;;;;;;;;;;19.49;100.00;97251.94;5032317;28;19993;-69
2023/07/26 00:42:41;;;;;;;;;;;;;;;19.66;100.00;97246.31;5031019;28;19976;-69
2023/07/26 00:45:07;;;;;;;;;;;;;;;19.76;100.00;97251.28;5041780;28;19969;-70
2023/07/26 00:47:34;;;;;;;;;;;;;;;19.87;100.00;97255.91;5043803;28;19926;-69
2023/07/26 00:50:02;;;;;;;;;;;;;;;19.83;100.00;97257.75;5043686;28;19960;-69
2023/07/26 00:52:28;;;;;;;;;;;;;;;19.91;100.00;97259.53;5042156;28;19993;-70
2023/07/26 00:54:55;;;;;;;;;;;;;;;19.84;100.00;97258.50;5040213;28;19925;-70
2023/07/26 00:57:22;;;;;;;;;;;;;;;19.80;100.00;97266.56;5040913;28;19932;-70
2023/07/26 00:59:49;;;;;;;;;;;;;;;19.85;100.00;97266.31;5043782;28;19988;-70
2023/07/26 01:02:16;;;;;;;;;;;;;;;19.69;100.00;97270.03;5043667;28;19989;-70
2023/07/26 01:04:42;;;;;;;;;;;;;;;19.60;100.00;97278.25;5031902;28;19989;-70
2023/07/26 01:07:13;;;;;;;;;;;;;;;19.69;100.00;97273.53;5031841;28;19964;-70
2023/07/26 01:09:42;;;;;;;;;;;;;;;19.74;100.00;97269.81;5031740;28;19926;-70
2023/07/26 01:12:15;;;;;;;;;;;;;;;19.48;100.00;97274.72;5031732;28;20037;-71
2023/07/26 01:14:46;;;;;;;;;;;;;;;19.57;100.00;97287.06;5031810;28;19933;-70
2023/07/26 01:17:12;;;;;;;;;;;;;;;19.63;100.00;97290.31;5042723;28;19925;-70
2023/07/26 01:19:38;;;;;;;;;;;;;;;19.55;100.00;97283.09;5042854;28;19968;-70
2023/07/26 01:22:06;;;;;;;;;;;;;;;19.59;100.00;97284.03;5043324;28;20486;-70
2023/07/26 01:24:33;;;;;;;;;;;;;;;19.63;100.00;97290.31;5040814;28;19925;-70
2023/07/26 01:26:59;;;;;;;;;;;;;;;19.20;100.00;97293.47;5039459;28;19988;-70
2023/07/26 01:29:25;;;;;;;;;;;;;;;19.22;100.00;97289.28;5040759;28;19961;-70
2023/07/26 01:31:52;;;;;;;;;;;;;;;19.15;100.00;97301.81;5042956;28;19955;-71
2023/07/26 01:34:19;;;;;;;;;;;;;;;19.25;100.00;97290.53;5024269;28;19925;-70
2023/07/26 01:36:45;;;;;;;;;;;;;;;19.45;100.00;97308.69;5039471;28;19956;-70
2023/07/26 01:39:13;;;;;;;;;;;;;;;19.59;100.00;97297.56;5039504;28;19925;-69
2023/07/26 01:41:40;;;;;;;;;;;;;;;19.68;100.00;97301.72;5024721;28;19971;-70
2023/07/26 01:44:06;;;;;;;;;;;;;;;19.76;100.00;97297.34;5042795;28;19929;-69
2023/07/26 01:46:33;;;;;;;;;;;;;;;19.81;100.00;97302.53;5043187;28;19975;-69
2023/07/26 01:48:59;;;;;;;;;;;;;;;19.83;100.00;97308.44;5039372;28;19936;-69
2023/07/26 01:51:26;;;;;;;;;;;;;;;19.77;100.00;97307.06;5040360;28;19926;-70
2023/07/26 01:53:52;;;;;;;;;;;;;;;19.73;100.00;97298.03;5042684;28;19961;-69
2023/07/26 01:56:20;;;;;;;;;;;;;;;19.69;100.00;97302.53;5042075;28;19925;-70
2023/07/26 01:58:46;;;;;;;;;;;;;;;19.63;100.00;97296.53;5038869;28;19943;-70
2023/07/26 02:01:13;;;;;;;;;;;;;;;19.47;100.00;97300.22;5039154;28;19926;-70
2023/07/26 02:03:39;;;;;;;;;;;;;;;19.60;100.00;97302.63;5024658;28;20000;-71
2023/07/26 02:06:05;;;;;;;;;;;;;;;19.70;100.00;97312.25;5042329;28;19960;-71
2023/07/26 02:08:32;;;;;;;;;;;;;;;19.73;100.00;97308.88;5040583;28;19925;-70
2023/07/26 02:10:58;;;;;;;;;;;;;;;19.69;100.00;97305.25;5038890;28;19993;-69
2023/07/26 02:13:26;;;;;;;;;;;;;;;19.54;100.00;97308.59;5040013;28;19992;-69
2023/07/26 02:15:52;;;;;;;;;;;;;;;19.63;100.00;97309.28;5045174;28;19925;-69
2023/07/26 02:18:19;;;;;;;;;;;;;;;19.46;100.00;97309.50;5042032;28;19926;-70
2023/07/26 02:20:45;;;;;;;;;;;;;;;19.55;100.00;97321.81;5039037;28;20554;-70
2023/07/26 02:23:11;;;;;;;;;;;;;;;19.62;100.00;97321.28;5039031;28;19932;-70
2023/07/26 02:25:38;;;;;;;;;;;;;;;19.59;100.00;97327.38;5024203;28;19989;-70
2023/07/26 02:28:04;;;;;;;;;;;;;;;19.60;100.00;97324.31;5042135;28;19968;-69
2023/07/26 02:30:32;;;;;;;;;;;;;;;19.59;100.00;97327.38;5040208;28;20004;-70
2023/07/26 02:32:58;;;;;;;;;;;;;;;19.51;100.00;97325.50;5038685;28;19976;-70
2023/07/26 02:35:25;;;;;;;;;;;;;;;19.55;100.00;97334.56;5039523;28;19926;-70
2023/07/26 02:37:51;;;;;;;;;;;;;;;19.55;100.00;97338.06;5042092;28;19952;-70
2023/07/26 02:40:17;;;;;;;;;;;;;;;19.42;100.00;97351.91;5041772;28;19931;-70
2023/07/26 02:42:44;;;;;;;;;;;;;;;19.27;100.00;97351.38;5038566;28;19988;-70
2023/07/26 02:45:10;;;;;;;;;;;;;;;19.34;100.00;97351.59;5023759;28;19961;-70
2023/07/26 02:47:38;;;;;;;;;;;;;;;19.37;100.00;97353.66;5045762;28;19937;-70
2023/07/26 02:50:04;;;;;;;;;;;;;;;19.35;100.00;97349.69;5045996;28;19967;-69
2023/07/26 02:52:31;;;;;;;;;;;;;;;19.30;100.00;97353.41;5043839;28;19956;-69
2023/07/26 02:54:58;;;;;;;;;;;;;;;19.32;100.00;97361.97;5042310;28;20496;-70
2023/07/26 02:57:24;;;;;;;;;;;;;;;19.39;100.00;97367.69;5025576;28;19925;-70
2023/07/26 02:59:50;;;;;;;;;;;;;;;19.42;100.00;97365.44;5045672;28;19988;-70
2023/07/26 03:02:17;;;;;;;;;;;;;;;19.44;100.00;97371.28;5045870;28;20000;-70
2023/07/26 03:04:44;;;;;;;;;;;;;;;19.34;100.00;97378.69;5032914;28;19992;-70
2023/07/26 03:07:11;;;;;;;;;;;;;;;19.44;100.00;97368.59;5033838;28;19949;-70
2023/07/26 03:09:37;;;;;;;;;;;;;;;19.50;100.00;97383.50;5033970;28;19961;-70
2023/07/26 03:12:03;;;;;;;;;;;;;;;19.35;100.00;97371.34;5034036;28;19957;-70
2023/07/26 03:14:30;;;;;;;;;;;;;;;19.35;100.00;97368.66;5033886;28;19961;-70
2023/07/26 03:16:56;;;;;;;;;;;;;;;19.37;100.00;97380.72;5044682;28;19929;-70
2023/07/26 03:19:22;;;;;;;;;;;;;;;19.41;100.00;97386.31;5042858;28;19988;-70
2023/07/26 03:21:50;;;;;;;;;;;;;;;19.42;100.00;97376.25;5027892;28;19925;-70
2023/07/26 03:24:16;;;;;;;;;;;;;;;19.34;100.00;97380.63;5045777;28;19965;-70
2023/07/26 03:26:43;;;;;;;;;;;;;;;19.30;100.00;97385.09;5034113;28;19972;-70
2023/07/26 03:29:09;;;;;;;;;;;;;;;19.06;100.00;97383.06;5034063;28;19963;-70
2023/07/26 03:31:35;;;;;;;;;;;;;;;19.13;100.00;97385.22;5016381;28;20212;-70
2023/07/26 03:34:02;;;;;;;;;;;;;;;19.20;100.00;97378.19;5034004;28;20024;-70
2023/07/26 03:36:28;;;;;;;;;;;;;;;19.11;100.00;97374.75;5033686;28;19997;-70
2023/07/26 03:38:56;;;;;;;;;;;;;;;19.15;100.00;97386.50;5033636;28;19981;-70
2023/07/26 03:41:22;;;;;;;;;;;;;;;19.22;100.00;97377.81;5033221;28;19926;-70
2023/07/26 03:43:48;;;;;;;;;;;;;;;19.28;100.00;97381.94;5016659;28;19925;-70
2023/07/26 03:46:15;;;;;;;;;;;;;;;19.23;100.00;97396.47;5043667;28;19996;-70
2023/07/26 03:48:41;;;;;;;;;;;;;;;19.30;100.00;97395.94;5023691;28;20416;-70
2023/07/26 03:51:07;;;;;;;;;;;;;;;19.28;100.00;97400.91;5041260;28;20015;-70
2023/07/26 03:53:34;;;;;;;;;;;;;;;19.29;100.00;97392.44;5043457;28;19985;-70
2023/07/26 03:56:01;;;;;;;;;;;;;;;19.21;100.00;97389.81;5044771;28;19972;-70
2023/07/26 03:58:28;;;;;;;;;;;;;;;19.16;100.00;97398.91;5024977;28;19932;-70
2023/07/26 04:00:54;;;;;;;;;;;;;;;19.24;100.00;97403.47;5041322;28;19925;-70
2023/07/26 04:03:20;;;;;;;;;;;;;;;19.25;100.00;97409.66;5041503;28;19992;-70
2023/07/26 04:05:47;;;;;;;;;;;;;;;19.29;100.00;97405.16;5044717;28;20033;-70
2023/07/26 04:08:13;;;;;;;;;;;;;;;19.28;100.00;97412.50;5027040;28;20079;-70
2023/07/26 04:10:39;;;;;;;;;;;;;;;19.28;100.00;97415.19;5041649;28;19968;-70
2023/07/26 04:13:07;;;;;;;;;;;;;;;19.28;100.00;97425.25;5023786;28;19997;-70
2023/07/26 04:15:33;;;;;;;;;;;;;;;19.23;100.00;97428.94;5046330;28;20020;-70
2023/07/26 04:18:00;;;;;;;;;;;;;;;19.25;100.00;97432.09;5044719;28;19992;-69
2023/07/26 04:20:26;;;;;;;;;;;;;;;19.16;100.00;97436.00;5043078;28;19963;-70
2023/07/26 04:22:52;;;;;;;;;;;;;;;19.23;100.00;97438.97;5023158;28;19931;-70
2023/07/26 04:25:19;;;;;;;;;;;;;;;19.22;100.00;97435.47;5040774;28;19925;-70
2023/07/26 04:27:45;;;;;;;;;;;;;;;19.25;100.00;97440.22;5044095;28;19964;-70
2023/07/26 04:30:13;;;;;;;;;;;;;;;19.24;100.00;97438.66;5044242;28;19964;-70
2023/07/26 04:32:39;;;;;;;;;;;;;;;19.30;100.00;97441.97;5041014;28;19932;-70
2023/07/26 04:35:06;;;;;;;;;;;;;;;19.30;100.00;97441.97;5040684;28;19926;-70
2023/07/26 04:37:32;;;;;;;;;;;;;;;19.28;100.00;97447.69;5042656;28;19953;-70
2023/07/26 04:39:59;;;;;;;;;;;;;;;19.28;100.00;97444.97;5026313;28;19969;-70
2023/07/26 04:42:25;;;;;;;;;;;;;;;19.31;100.00;97446.25;5042898;28;19973;-70
2023/07/26 04:44:51;;;;;;;;;;;;;;;19.19;100.00;97446.97;5040337;28;19961;-70
2023/07/26 04:47:22;;;;;;;;;;;;;;;19.17;100.00;97443.00;5042973;28;19929;-70
2023/07/26 04:49:48;;;;;;;;;;;;;;;19.16;100.00;97444.13;5043869;28;19980;-72
2023/07/26 04:52:15;;;;;;;;;;;;;;;19.12;100.00;97464.88;5042970;28;19989;-72
2023/07/26 04:54:41;;;;;;;;;;;;;;;19.12;100.00;97464.88;5040684;28;19984;-72
2023/07/26 04:57:07;;;;;;;;;;;;;;;19.21;100.00;97463.69;5040431;28;19925;-72
2023/07/26 04:59:34;;;;;;;;;;;;;;;19.12;100.00;97472.97;5042362;28;19957;-72
2023/07/26 05:02:00;;;;;;;;;;;;;;;19.19;100.00;97471.31;5043580;28;19985;-72
2023/07/26 05:04:28;;;;;;;;;;;;;;;19.11;100.00;97474.88;5042210;28;19956;-70
2023/07/26 05:06:54;;;;;;;;;;;;;;;19.14;100.00;97478.84;5040062;28;19972;-70
2023/07/26 05:09:20;;;;;;;;;;;;;;;19.14;100.00;97482.34;5040439;28;20024;-70
2023/07/26 05:11:47;;;;;;;;;;;;;;;19.07;100.00;97484.78;5043388;28;19953;-70
2023/07/26 05:14:13;;;;;;;;;;;;;;;19.04;100.00;97485.44;5043363;28;19936;-70
2023/07/26 05:16:39;;;;;;;;;;;;;;;19.09;100.00;97487.97;5043131;28;19955;-70
2023/07/26 05:19:06;;;;;;;;;;;;;;;19.15;100.00;97493.97;5039720;28;19981;-71
2023/07/26 05:21:33;;;;;;;;;;;;;;;19.10;100.00;97494.94;5024064;28;19933;-70
2023/07/26 05:24:00;;;;;;;;;;;;;;;19.18;100.00;97496.03;5043123;28;19989;-70
2023/07/26 05:26:26;;;;;;;;;;;;;;;19.07;100.00;97501.03;5024090;28;19925;-70
2023/07/26 05:28:52;;;;;;;;;;;;;;;19.15;100.00;97512.94;5039536;28;20089;-70
2023/07/26 05:31:19;;;;;;;;;;;;;;;19.14;100.00;97511.34;5039932;28;19953;-70
2023/07/26 05:33:45;;;;;;;;;;;;;;;19.23;100.00;97515.56;5043105;28;19925;-70
2023/07/26 05:36:12;;;;;;;;;;;;;;;19.19;100.00;97520.06;5042856;28;19968;-70
2023/07/26 05:38:39;;;;;;;;;;;;;;;19.24;100.00;97513.66;5040110;28;19933;-70
2023/07/26 05:41:06;;;;;;;;;;;;;;;19.29;100.00;97511.56;5039437;28;19961;-70
2023/07/26 05:43:33;;;;;;;;;;;;;;;19.29;100.00;97513.47;5041174;28;19926;-70
2023/07/26 05:46:00;;;;;;;;;;;;;;;19.10;100.00;97521.22;5045293;28;19926;-70
2023/07/26 05:48:27;;;;;;;;;;;;;;;19.29;100.00;97516.97;5041174;28;19964;-70
2023/07/26 05:50:53;;;;;;;;;;;;;;;19.30;100.00;97515.84;5039196;28;20001;-70
2023/07/26 05:53:19;;;;;;;;;;;;;;;19.36;100.00;97521.88;5039320;28;20012;-70
2023/07/26 05:55:47;;;;;;;;;;;;;;;19.19;100.00;97516.53;5042582;28;19992;-70
2023/07/26 05:58:13;;;;;;;;;;;;;;;19.25;100.00;97529.56;5042719;28;19960;-70
2023/07/26 06:00:40;;;;;;;;;;;;;;;19.02;100.00;97522.06;5039740;28;19960;-70
2023/07/26 06:03:06;;;;;;;;;;;;;;;19.18;100.00;97515.78;5021278;28;19930;-69
2023/07/26 06:05:32;;;;;;;;;;;;;;;18.95;100.00;97521.78;5041016;28;19956;-69
2023/07/26 06:07:59;;;;;;;;;;;;;;;19.04;100.00;97520.63;5042307;28;19956;-69
2023/07/26 06:10:25;;;;;;;;;;;;;;;19.17;100.00;97527.72;5041158;28;19925;-69
2023/07/26 06:12:53;;;;;;;;;;;;;;;18.76;100.00;97535.72;5038821;28;19957;-69
2023/07/26 06:15:20;;;;;;;;;;;;;;;18.48;100.00;97535.31;5041934;28;19929;-69
2023/07/26 06:17:46;;;;;;;;;;;;;;;18.72;100.00;97542.91;5042479;28;20355;-69
2023/07/26 06:20:13;;;;;;;;;;;;;;;18.94;100.00;97548.03;5042179;28;19925;-69
2023/07/26 06:22:39;;;;;;;;;;;;;;;19.06;100.00;97553.59;5039363;28;19952;-69
2023/07/26 06:25:06;;;;;;;;;;;;;;;19.10;100.00;97553.69;5038919;28;19932;-69
2023/07/26 06:27:32;;;;;;;;;;;;;;;19.15;100.00;97548.13;5040944;28;19986;-69
2023/07/26 06:30:00;;;;;;;;;;;;;;;19.14;100.00;97554.66;5041380;28;19925;-69
2023/07/26 06:32:26;;;;;;;;;;;;;;;19.07;100.00;97547.03;5023496;28;20018;-70
2023/07/26 06:34:52;;;;;;;;;;;;;;;19.15;100.00;97546.22;5038889;28;19932;-69
2023/07/26 06:37:19;;;;;;;;;;;;;;;19.26;100.00;97565.56;5038734;28;19929;-70
2023/07/26 06:39:45;;;;;;;;;;;;;;;18.96;100.00;97559.34;5041923;28;20398;-69
2023/07/26 06:42:11;;;;;;;;;;;;;;;19.08;100.00;97572.19;5042163;28;19925;-69
2023/07/26 06:44:38;;;;;;;;;;;;;;;19.16;100.00;97564.03;5039219;28;19929;-70
2023/07/26 06:47:06;;;;;;;;;;;;;;;19.05;100.00;97573.63;5041121;28;19982;-70
2023/07/26 06:49:32;;;;;;;;;;;;;;;19.22;100.00;97578.94;5040742;28;19969;-70
2023/07/26 06:51:59;;;;;;;;;;;;;;;19.24;100.00;97575.94;5042023;28;19997;-70
2023/07/26 06:54:25;;;;;;;;;;;;;;;19.43;100.00;97568.22;5040803;28;19985;-70
2023/07/26 06:56:51;;;;;;;;;;;;;;;19.54;100.00;97568.59;5038516;28;19965;-70
2023/07/26 06:59:20;;;;;;;;;;;;;;;19.57;100.00;97576.06;5038731;28;19968;-70
2023/07/26 07:01:46;;;;;;;;;;;;;;;19.66;100.00;97579.50;5042001;28;19943;-70
2023/07/26 07:04:14;;;;;;;;;;;;;;;19.57;100.00;97576.88;5042014;28;19925;-70
2023/07/26 07:06:40;;;;;;;;;;;;;;;19.62;100.00;97586.72;5038594;28;19932;-70
2023/07/26 07:09:07;;;;;;;;;;;;;;;19.63;100.00;97589.09;5038372;28;20013;-70
2023/07/26 07:11:34;;;;;;;;;;;;;;;19.74;100.00;97603.06;5040331;28;19929;-69
2023/07/26 07:14:00;;;;;;;;;;;;;;;19.64;100.00;97596.13;5041666;28;19926;-70
2023/07/26 07:16:26;;;;;;;;;;;;;;;19.59;100.00;97599.00;5043239;28;20020;-70
2023/07/26 07:18:53;;;;;;;;;;;;;;;19.68;100.00;97591.59;5038185;28;19992;-69
2023/07/26 07:21:21;;;;;;;;;;;;;;;19.80;100.00;97583.56;5038186;28;19937;-69
2023/07/26 07:23:47;;;;;;;;;;;;;;;19.86;100.00;97592.28;5041626;28;20610;-69
2023/07/26 07:26:14;;;;;;;;;;;;;;;20.01;100.00;97594.41;5041559;28;19925;-69
2023/07/26 07:28:40;;;;;;;;;;;;;;;19.99;100.00;97585.81;5038531;28;19964;-71
2023/07/26 07:31:07;;;;;;;;;;;;;;;20.11;100.00;97594.00;5038292;28;19926;-68
2023/07/26 07:33:33;;;;;;;;;;;;;;;20.07;100.00;97587.66;5043437;28;20295;-70
2023/07/26 07:35:59;;;;;;;;;;;;;;;20.20;100.00;97593.91;5045213;28;19956;-69
2023/07/26 07:38:27;;;;;;;;;;;;;;;19.88;100.00;97587.31;5044076;28;19971;-69
2023/07/26 07:40:54;;;;;;;;;;;;;;;20.17;100.00;97581.84;5041463;28;19991;-70
2023/07/26 07:43:20;;;;;;;;;;;;;;;20.26;100.00;97584.50;5023912;28;19925;-69
2023/07/26 07:45:46;;;;;;;;;;;;;;;20.22;100.00;97595.16;5047732;28;20374;-69
2023/07/26 07:48:13;;;;;;;;;;;;;;;19.65;100.00;97591.50;5044689;28;19932;-69
2023/07/26 07:50:39;;;;;;;;;;;;;;;20.03;100.00;97589.44;5042097;28;19997;-70
2023/07/26 07:53:05;;;;;;;;;;;;;;;19.67;100.00;97584.63;5041943;28;19953;-70
2023/07/26 07:55:34;;;;;;;;;;;;;;;19.86;100.00;97595.81;5043207;28;19984;-70
2023/07/26 07:58:01;;;;;;;;;;;;;;;20.01;100.00;97593.59;5044721;28;19980;-70
2023/07/26 08:00:27;;;;;;;;;;;;;;;20.12;100.00;97595.56;5043479;28;19925;-70
2023/07/26 08:02:54;;;;;;;;;;;;;;;20.10;100.00;97591.63;5040994;28;20004;-70
2023/07/26 08:05:20;;;;;;;;;;;;;;;20.23;100.00;97602.19;5041491;28;19973;-69
2023/07/26 08:07:46;;;;;;;;;;;;;;;20.16;100.00;97599.22;5026720;28;19961;-70
2023/07/26 08:10:13;;;;;;;;;;;;;;;20.24;100.00;97601.03;5026849;28;19921;-70
2023/07/26 08:12:40;;;;;;;;;;;;;;;20.30;100.00;97602.44;5041688;28;19985;-70
2023/07/26 08:15:07;;;;;;;;;;;;;;;20.41;100.00;97600.13;5024891;28;19985;-71
2023/07/26 08:17:33;;;;;;;;;;;;;;;20.43;100.00;97604.09;5044421;28;20014;-71
2023/07/26 08:19:59;;;;;;;;;;;;;;;20.48;100.00;97597.69;5044207;28;19952;-71
2023/07/26 08:22:26;;;;;;;;;;;;;;;20.30;100.00;97605.16;5042915;28;19936;-71
2023/07/26 08:24:52;;;;;;;;;;;;;;;20.34;100.00;97616.16;5040945;28;19957;-71
2023/07/26 08:27:19;;;;;;;;;;;;;;;20.34;100.00;97613.44;5040625;28;19930;-70
2023/07/26 08:29:46;;;;;;;;;;;;;;;20.26;100.00;97606.97;5044272;28;19925;-70
2023/07/26 08:32:13;;;;;;;;;;;;;;;20.29;100.00;97611.72;5043799;28;20015;-70
2023/07/26 08:34:39;;;;;;;;;;;;;;;20.24;98.85;97608.41;5041195;28;19965;-70
2023/07/26 08:37:05;;;;;;;;;;;;;;;20.40;99.71;97607.47;5040359;28;19926;-71
2023/07/26 08:39:32;;;;;;;;;;;;;;;20.45;99.83;97601.06;5042047;28;19957;-70
2023/07/26 08:41:59;;;;;;;;;;;;;;;20.55;97.12;97599.84;5043854;28;20079;-71
2023/07/26 08:44:25;;;;;;;;;;;;;;;20.12;97.79;97611.84;5042565;28;19957;-71
2023/07/26 08:46:53;;;;;;;;;;;;;;;20.26;99.71;97609.69;5043196;28;19925;-71
2023/07/26 08:49:20;;;;;;;;;;;;;;;20.46;98.51;97600.72;5040310;28;19992;-71
2023/07/26 08:51:47;;;;;;;;;;;;;;;20.62;96.44;97606.31;5026267;28;19997;-71
2023/07/26 08:54:14;;;;;;;;;;;;;;;20.55;93.70;97606.03;5043625;28;19936;-71
2023/07/26 08:56:41;;;;;;;;;;;;;;;20.53;93.93;97597.47;5040187;28;19925;-70
2023/07/26 08:59:08;;;;;;;;;;;;;;;20.74;93.31;97594.66;5040061;28;19983;-71
2023/07/26 09:01:34;;;;;;;;;;;;;;;20.93;90.91;97592.22;5024484;28;19985;-71
2023/07/26 09:04:02;;;;;;;;;;;;;;;21.00;90.27;97590.56;5043322;28;19995;-71
2023/07/26 09:06:28;;;;;;;;;;;;;;;20.89;88.43;97602.97;5041857;28;20278;-71
2023/07/26 09:08:55;;;;;;;;;;;;;;;20.77;89.90;97594.00;5039889;28;19925;-71
2023/07/26 09:11:23;;;;;;;;;;;;;;;20.83;90.09;97588.03;5040116;28;19926;-71
2023/07/26 09:13:53;;;;;;;;;;;;;;;20.52;92.03;97597.81;5043195;28;19964;-71
2023/07/26 09:16:20;;;;;;;;;;;;;;;20.64;91.97;97595.88;5045656;28;19936;-70
2023/07/26 09:18:55;;;;;;;;;;;;;;;20.76;91.30;97595.94;5039592;28;19964;-70
2023/07/26 09:21:25;;;;;;;;;;;;;;;20.88;89.44;97587.03;5022380;28;20012;-70
2023/07/26 09:23:52;;;;;;;;;;;;;;;21.18;86.93;97587.63;5025284;28;19960;-71
2023/07/26 09:26:30;;;;;;;;;;;;;;;20.93;80.91;97584.88;5042910;28;19967;-71
2023/07/26 09:28:57;;;;;;;;;;;;;;;21.06;86.62;97579.44;5039387;28;19988;-71
2023/07/26 09:31:29;;;;;;;;;;;;;;;21.06;85.27;97584.88;5040293;28;19952;-71
2023/07/26 09:33:56;;;;;;;;;;;;;;;21.07;83.72;97587.28;5043009;28;19925;-71
2023/07/26 09:36:23;;;;;;;;;;;;;;;21.08;78.76;97574.47;5042269;28;19964;-71
2023/07/26 09:38:51;;;;;;;;;;;;;;;21.04;79.01;97570.88;5039524;28;19988;-71
2023/07/26 09:41:23;;;;;;;;;;;;;;;21.38;79.68;97571.25;5039219;28;19926;-70
2023/07/26 09:43:51;;;;;;;;;;;;;;;21.52;76.10;97566.22;5039344;28;20048;-69
2023/07/26 09:46:17;;;;;;;;;;;;;;;21.37;75.59;97569.66;5047136;28;19952;-70
2023/07/26 09:48:57;;;;;;;;;;;;;;;21.56;73.73;97554.69;5031070;28;19925;-70
2023/07/26 09:51:24;;;;;;;;;;;;;;;21.62;77.51;97554.09;5030986;28;19925;-70
2023/07/26 09:53:53;;;;;;;;;;;;;;;21.76;77.50;97553.72;5030869;28;19926;-70
2023/07/26 09:56:19;;;;;;;;;;;;;;;21.77;70.94;97550.66;5012674;28;19976;-70
2023/07/26 09:58:47;;;;;;;;;;;;;;;21.09;69.16;97547.03;5031101;28;19953;-70
2023/07/26 10:01:15;;;;;;;;;;;;;;;21.16;76.41;97547.25;5031118;28;19957;-70
2023/07/26 10:03:42;;;;;;;;;;;;;;;21.12;72.42;97546.34;5030967;28;19960;-71
2023/07/26 10:06:09;;;;;;;;;;;;;;;20.84;70.63;97557.03;5030713;28;19925;-70
2023/07/26 10:08:37;;;;;;;;;;;;;;;21.05;75.87;97550.72;5030696;28;19993;-70
2023/07/26 10:11:06;;;;;;;;;;;;;;;21.28;78.27;97558.13;5030850;28;19997;-70
2023/07/26 10:13:33;;;;;;;;;;;;;;;21.40;77.72;97552.66;5030815;28;19925;-70
2023/07/26 10:16:01;;;;;;;;;;;;;;;21.34;79.45;97561.38;5039450;28;19957;-70
2023/07/26 10:18:28;;;;;;;;;;;;;;;20.95;83.73;97569.03;5041126;28;19975;-70
2023/07/26 10:20:55;;;;;;;;;;;;;;;21.09;88.40;97566.03;5039283;28;19925;-70
2023/07/26 10:23:22;;;;;;;;;;;;;;;21.12;89.73;97583.56;5039381;28;19981;-70
2023/07/26 10:25:48;;;;;;;;;;;;;;;21.11;90.85;97582.75;5042393;28;19964;-70
2023/07/26 10:28:17;;;;;;;;;;;;;;;21.12;91.40;97573.50;5024778;28;19976;-70
2023/07/26 10:30:43;;;;;;;;;;;;;;;21.12;90.34;97570.78;5039075;28;20257;-70
2023/07/26 10:33:13;;;;;;;;;;;;;;;20.96;89.70;97575.25;5039240;28;19976;-70
2023/07/26 10:35:41;;;;;;;;;;;;;;;21.03;88.36;97583.66;5024584;28;19929;-71
2023/07/26 10:38:08;;;;;;;;;;;;;;;21.06;87.45;97585.69;5042610;28;19936;-71
2023/07/26 10:40:35;;;;;;;;;;;;;;;21.04;87.01;97592.59;5040258;28;19933;-69
2023/07/26 10:43:17;;;;;;;;;;;;;;;21.06;85.81;97582.16;5038849;28;19964;-70
2023/07/26 10:45:44;;;;;;;;;;;;;;;21.10;85.45;97592.06;5024699;28;19925;-70
2023/07/26 10:48:14;;;;;;;;;;;;;;;21.07;84.30;97579.13;5042159;28;19965;-69
2023/07/26 10:50:40;;;;;;;;;;;;;;;21.17;81.23;97589.56;5021836;28;19937;-70
2023/07/26 10:53:27;;;;;;;;;;;;;;;21.27;79.91;97585.59;5038926;28;19925;-71
2023/07/26 10:55:56;;;;;;;;;;;;;;;21.25;79.62;97583.22;5030671;28;20319;-71
2023/07/26 10:58:23;;;;;;;;;;;;;;;21.33;79.11;97576.09;5030702;28;19929;-71
2023/07/26 11:00:50;;;;;;;;;;;;;;;21.25;77.53;97571.56;5030768;28;19936;-71
2023/07/26 11:03:25;;;;;;;;;;;;;;;21.28;73.98;97577.13;5030628;28;19953;-71
2023/07/26 11:05:55;;;;;;;;;;;;;;;21.41;72.83;97580.63;5039452;28;19956;-70
2023/07/26 11:08:22;;;;;;;;;;;;;;;21.38;70.93;97579.38;5042819;28;19926;-70
2023/07/26 11:10:50;;;;;;;;;;;;;;;21.47;69.78;97569.19;5045921;28;19968;-71
2023/07/26 11:13:17;;;;;;;;;;;;;;;21.47;68.90;97580.06;5045819;28;19985;-71
2023/07/26 11:15:46;;;;;;;;;;;;;;;21.58;68.55;97568.69;5045948;28;20295;-71
2023/07/26 11:18:12;;;;;;;;;;;;;;;21.56;68.65;97570.97;5045540;28;19925;-71
2023/07/26 11:20:39;;;;;;;;;;;;;;;21.64;69.29;97567.31;5042906;28;19930;-71
2023/07/26 11:23:15;;;;;;;;;;;;;;;21.53;69.66;97564.31;5042152;28;19925;-72
2023/07/26 11:25:42;;;;;;;;;;;;;;;21.34;70.73;97558.66;5027582;28;19925;-72
2023/07/26 11:28:08;;;;;;;;;;;;;;;21.38;71.96;97557.66;5045283;28;19997;-72
2023/07/26 11:30:38;;;;;;;;;;;;;;;21.46;72.92;97561.38;5043230;28;19925;-71
2023/07/26 11:33:06;;;;;;;;;;;;;;;21.51;72.94;97561.13;5042067;28;19968;-72
2023/07/26 11:35:39;;;;;;;;;;;;;;;21.44;74.59;97553.56;5043617;28;19925;-71
2023/07/26 11:38:05;;;;;;;;;;;;;;;21.68;74.46;97562.81;5045162;28;19925;-71
2023/07/26 11:40:37;;;;;;;;;;;;;;;21.64;74.67;97554.53;5043233;28;19937;-71
2023/07/26 11:43:05;;;;;;;;;;;;;;;21.60;75.83;97572.66;5041576;28;20403;-71
2023/07/26 11:45:32;;;;;;;;;;;;;;;21.68;75.86;97560.88;5046400;28;19965;-71
2023/07/26 11:47:59;;;;;;;;;;;;;;;21.51;77.11;97575.50;5044767;28;19925;-71
2023/07/26 11:50:27;;;;;;;;;;;;;;;21.50;77.87;97573.94;5043965;28;19964;-71
2023/07/26 11:53:03;;;;;;;;;;;;;;;21.49;78.85;97577.78;5041405;28;19926;-71
2023/07/26 11:55:29;;;;;;;;;;;;;;;21.48;79.32;97587.06;5042878;28;19925;-71
2023/07/26 11:57:56;;;;;;;;;;;;;;;21.56;80.09;97584.56;5044774;28;19981;-71
2023/07/26 12:00:22;;;;;;;;;;;;;;;21.40;81.49;97601.56;5026337;28;19933;-71
2023/07/26 12:02:49;;;;;;;;;;;;;;;21.35;83.54;97612.63;5041203;28;19932;-71
2023/07/26 12:05:18;;;;;;;;;;;;;;;21.17;92.67;97683.84;5041211;28;19972;-71
2023/07/26 12:07:47;;;;;;;;;;;;;;;20.14;90.73;97728.91;5041098;28;19925;-71
2023/07/26 12:10:13;;;;;;;;;;;;;;;20.37;93.93;97729.38;5041223;28;19988;-70
2023/07/26 12:12:40;;;;;;;;;;;;;;;20.47;94.42;97745.28;5043879;28;19996;-70
2023/07/26 12:15:08;;;;;;;;;;;;;;;20.28;95.43;97759.28;5044437;28;19926;-70
2023/07/26 12:17:34;;;;;;;;;;;;;;;20.39;96.14;97749.63;5043766;28;19926;-71
2023/07/26 12:20:03;;;;;;;;;;;;;;;20.35;97.06;97756.84;5026623;28;19936;-71
2023/07/26 12:22:29;;;;;;;;;;;;;;;20.49;97.18;97758.53;5042792;28;19936;-71
2023/07/26 12:25:00;;;;;;;;;;;;;;;20.45;96.34;97758.38;5040749;28;19933;-71
2023/07/26 12:27:27;;;;;;;;;;;;;;;20.26;93.26;97760.75;5041767;28;19926;-70
2023/07/26 12:29:54;;;;;;;;;;;;;;;20.29;98.20;97762.81;5044207;28;19957;-71
2023/07/26 12:32:20;;;;;;;;;;;;;;;20.44;97.55;97765.72;5043923;28;19935;-71
2023/07/26 12:34:47;;;;;;;;;;;;;;;20.59;96.72;97760.81;5040581;28;19925;-71
2023/07/26 12:37:13;;;;;;;;;;;;;;;20.65;96.51;97759.50;5040489;28;19926;-71
2023/07/26 12:39:40;;;;;;;;;;;;;;;20.51;96.98;97762.50;5043224;28;19924;-71